createdAt,value
2023-04-17T00:01:20.162Z,3.00
2023-04-17T00:03:48.268Z,3.13
2023-04-17T00:06:16.764Z,3.07
2023-04-17T00:08:47.759Z,3.30
2023-04-17T00:11:18.051Z,3.30
2023-04-17T00:13:47.990Z,4.67
2023-04-17T00:16:16.643Z,3.90
2023-04-17T00:18:44.942Z,4.13
2023-04-17T00:21:12.826Z,4.87
2023-04-17T00:23:41.398Z,5.30
2023-04-17T00:26:09.405Z,3.70
2023-04-17T00:28:37.562Z,3.40
2023-04-17T00:31:26.067Z,3.93
2023-04-17T00:33:56.202Z,6.00
2023-04-17T00:36:27.543Z,4.83
2023-04-17T00:38:56.083Z,4.60
2023-04-17T00:41:24.956Z,6.00
2023-04-17T00:43:53.088Z,6.23
2023-04-17T00:46:23.184Z,5.67
2023-04-17T00:48:51.332Z,5.10
2023-04-17T00:51:19.255Z,4.53
2023-04-17T00:53:48.000Z,4.80
2023-04-17T00:56:16.290Z,4.23
2023-04-17T00:58:44.518Z,4.10
2023-04-17T01:01:13.074Z,3.90
2023-04-17T01:03:42.041Z,4.27
2023-04-17T01:06:10.501Z,3.47
2023-04-17T01:08:42.623Z,3.70
2023-04-17T01:11:12.124Z,3.50
2023-04-17T01:13:50.657Z,3.43
2023-04-17T01:16:20.324Z,3.50
2023-04-17T01:18:51.625Z,3.97
2023-04-17T01:21:19.642Z,3.47
2023-04-17T01:23:52.404Z,3.13
2023-04-17T01:26:31.762Z,3.90
2023-04-17T01:29:03.147Z,3.23
2023-04-17T01:31:31.958Z,3.60
2023-04-17T01:34:02.804Z,3.33
2023-04-17T01:36:32.083Z,3.43
2023-04-17T01:39:00.011Z,3.37
2023-04-17T01:41:28.147Z,3.27
2023-04-17T01:43:56.522Z,3.10
2023-04-17T01:46:24.711Z,3.17
2023-04-17T01:48:52.814Z,2.83
2023-04-17T01:51:21.287Z,3.70
2023-04-17T01:53:58.281Z,3.10
2023-04-17T01:56:27.928Z,2.77
2023-04-17T01:58:56.120Z,3.13
2023-04-17T02:01:24.353Z,3.10
2023-04-17T02:03:52.700Z,3.13
2023-04-17T02:06:21.884Z,2.73
2023-04-17T02:08:49.920Z,2.93
2023-04-17T02:11:18.034Z,2.90
2023-04-17T02:13:46.483Z,2.60
2023-04-17T02:16:14.772Z,3.00
2023-04-17T02:18:42.746Z,2.83
2023-04-17T02:21:10.746Z,3.17
2023-04-17T02:23:38.708Z,2.67
2023-04-17T02:26:06.814Z,2.87
2023-04-17T02:28:41.006Z,2.90
2023-04-17T02:31:09.659Z,2.83
2023-04-17T02:33:38.002Z,2.90
2023-04-17T02:36:06.781Z,2.70
2023-04-17T02:38:35.006Z,2.60
2023-04-17T02:41:03.224Z,3.00
2023-04-17T02:43:31.934Z,3.00
2023-04-17T02:46:00.222Z,3.30
2023-04-17T02:48:28.648Z,3.70
2023-04-17T02:50:56.494Z,3.23
2023-04-17T02:53:24.624Z,3.57
2023-04-17T02:55:52.719Z,3.40
2023-04-17T02:58:21.390Z,3.40
2023-04-17T03:00:49.500Z,3.57
2023-04-17T03:03:17.689Z,3.53
2023-04-17T03:05:45.641Z,3.00
2023-04-17T03:08:14.071Z,3.13
2023-04-17T03:10:42.910Z,3.77
2023-04-17T03:13:13.716Z,3.20
2023-04-17T03:15:41.949Z,3.40
2023-04-17T03:18:10.319Z,3.20
2023-04-17T03:20:39.288Z,3.70
2023-04-17T03:23:07.713Z,3.53
2023-04-17T03:25:35.799Z,2.77
2023-04-17T03:28:04.244Z,3.60
2023-04-17T03:30:33.352Z,3.27
2023-04-17T03:33:01.621Z,2.97
2023-04-17T03:35:29.852Z,3.13
2023-04-17T03:37:58.446Z,3.07
2023-04-17T03:40:26.714Z,3.20
2023-04-17T03:42:54.914Z,3.03
2023-04-17T03:45:23.410Z,3.23
2023-04-17T03:47:51.479Z,3.00
2023-04-17T03:50:19.466Z,3.07
2023-04-17T03:52:47.460Z,2.87
2023-04-17T03:55:17.272Z,3.10
2023-04-17T03:57:45.481Z,2.80
2023-04-17T04:00:14.430Z,3.40
2023-04-17T04:02:42.702Z,2.70
2023-04-17T04:05:12.232Z,2.90
2023-04-17T04:07:40.244Z,2.77
2023-04-17T04:10:08.850Z,3.40
2023-04-17T04:12:37.086Z,2.90
2023-04-17T04:15:11.006Z,3.03
2023-04-17T04:17:41.997Z,2.80
2023-04-17T04:20:10.361Z,3.13
2023-04-17T04:22:38.418Z,2.70
2023-04-17T04:25:07.093Z,2.70
2023-04-17T04:27:35.356Z,2.60
2023-04-17T04:30:04.905Z,2.47
2023-04-17T04:32:37.852Z,2.67
2023-04-17T04:35:07.037Z,2.50
2023-04-17T04:37:36.255Z,2.65
2023-04-17T04:40:25.176Z,2.72
2023-04-17T04:42:53.151Z,2.42
2023-04-17T04:45:21.276Z,2.70
2023-04-17T04:47:51.505Z,3.40
2023-04-17T04:50:21.707Z,3.25
2023-04-17T04:52:49.605Z,2.85
2023-04-17T04:55:17.770Z,3.15
2023-04-17T04:57:45.978Z,3.22
2023-04-17T05:00:15.078Z,2.67
2023-04-17T05:02:43.874Z,2.90
2023-04-17T05:05:12.897Z,2.35
2023-04-17T05:07:41.288Z,4.28
2023-04-17T05:10:10.103Z,3.80
2023-04-17T05:12:38.178Z,4.60
2023-04-17T05:15:07.226Z,4.50
2023-04-17T05:17:36.864Z,4.30
2023-04-17T05:20:09.569Z,2.70
2023-04-17T05:22:37.950Z,2.87
2023-04-17T05:25:06.240Z,3.07
2023-04-17T05:27:34.690Z,3.93
2023-04-17T05:30:02.756Z,3.90
2023-04-17T05:32:31.948Z,2.90
2023-04-17T05:34:59.962Z,3.33
2023-04-17T05:37:28.128Z,3.33
2023-04-17T05:39:56.291Z,3.20
2023-04-17T05:42:25.141Z,4.90
2023-04-17T05:44:53.583Z,4.10
2023-04-17T05:47:21.996Z,3.10
2023-04-17T05:49:51.920Z,3.33
2023-04-17T05:52:20.026Z,3.60
2023-04-17T05:54:48.151Z,6.27
2023-04-17T05:57:16.368Z,4.57
2023-04-17T05:59:46.592Z,3.47
2023-04-17T06:02:17.728Z,3.93
2023-04-17T06:04:47.437Z,4.60
2023-04-17T06:07:15.819Z,4.30
2023-04-17T06:09:43.748Z,3.77
2023-04-17T06:12:16.553Z,6.87
2023-04-17T06:14:49.171Z,8.97
2023-04-17T06:17:17.754Z,7.17
2023-04-17T06:19:46.568Z,5.10
2023-04-17T06:22:15.888Z,4.73
2023-04-17T06:24:45.298Z,2.93
2023-04-17T06:27:13.454Z,5.67
2023-04-17T06:29:41.778Z,3.77
2023-04-17T06:32:12.815Z,6.63
2023-04-17T06:34:58.213Z,5.50
2023-04-17T06:37:27.422Z,7.00
2023-04-17T06:39:55.708Z,5.17
2023-04-17T06:42:26.690Z,6.10
2023-04-17T06:44:56.394Z,4.10
2023-04-17T06:47:24.566Z,2.20
2023-04-17T06:49:52.726Z,2.90
2023-04-17T06:52:22.614Z,3.30
2023-04-17T06:54:56.371Z,3.87
2023-04-17T06:57:24.382Z,2.87
2023-04-17T06:59:52.340Z,2.20
2023-04-17T07:02:20.429Z,2.47
2023-04-17T07:04:49.551Z,2.00
2023-04-17T07:07:17.757Z,2.00
2023-04-17T07:09:48.302Z,2.50
2023-04-17T07:12:16.523Z,2.50
2023-04-17T07:14:45.300Z,3.30
2023-04-17T07:17:14.836Z,2.33
2023-04-17T07:19:42.901Z,2.00
2023-04-17T07:22:10.997Z,2.20
2023-04-17T07:24:44.089Z,2.90
2023-04-17T07:27:12.116Z,3.03
2023-04-17T07:29:40.197Z,2.03
2023-04-17T07:32:08.199Z,2.30
2023-04-17T07:34:41.539Z,2.10
2023-04-17T07:37:09.969Z,2.20
2023-04-17T07:39:38.271Z,2.67
2023-04-17T07:42:09.407Z,2.20
2023-04-17T07:44:40.949Z,2.37
2023-04-17T07:47:09.403Z,1.87
2023-04-17T07:49:40.145Z,2.40
2023-04-17T07:52:08.367Z,3.13
2023-04-17T07:54:36.587Z,2.13
2023-04-17T07:57:11.435Z,2.20
2023-04-17T07:59:39.993Z,2.00
2023-04-17T08:02:08.900Z,2.00
2023-04-17T08:04:38.154Z,1.40
2023-04-17T08:07:07.741Z,1.67
2023-04-17T08:09:36.012Z,2.20
2023-04-17T08:12:04.221Z,2.30
2023-04-17T08:14:33.237Z,1.90
2023-04-17T08:17:02.333Z,1.70
2023-04-17T08:19:33.036Z,1.80
2023-04-17T08:22:06.766Z,1.80
2023-04-17T08:24:34.872Z,2.47
2023-04-17T08:27:06.542Z,2.10
2023-04-17T08:29:40.545Z,1.50
2023-04-17T08:32:14.542Z,1.60
2023-04-17T08:34:45.195Z,1.73
2023-04-17T08:37:13.204Z,1.90
2023-04-17T08:39:41.793Z,2.50
2023-04-17T08:42:18.563Z,1.60
2023-04-17T08:44:50.203Z,1.60
2023-04-17T08:47:18.382Z,3.07
2023-04-17T08:49:47.688Z,1.70
2023-04-17T08:52:15.959Z,2.30
2023-04-17T08:54:44.182Z,1.50
2023-04-17T08:57:12.716Z,1.67
2023-04-17T08:59:42.772Z,1.70
2023-04-17T09:02:11.388Z,1.37
2023-04-17T09:04:45.100Z,1.77
2023-04-17T09:07:15.835Z,1.47
2023-04-17T09:09:59.919Z,1.77
2023-04-17T09:12:29.216Z,1.50
2023-04-17T09:15:01.454Z,1.43
2023-04-17T09:17:35.234Z,1.40
2023-04-17T09:20:07.928Z,1.77
2023-04-17T09:22:37.657Z,1.90
2023-04-17T09:25:09.606Z,1.33
2023-04-17T09:27:37.660Z,1.53
2023-04-17T09:30:07.269Z,1.63
2023-04-17T09:32:37.853Z,1.60
2023-04-17T09:35:06.464Z,1.53
2023-04-17T09:37:49.898Z,1.60
2023-04-17T09:40:20.044Z,1.20
2023-04-17T09:43:01.742Z,1.23
2023-04-17T09:45:42.848Z,1.43
2023-04-17T09:48:13.121Z,1.30
2023-04-17T09:50:41.499Z,1.90
2023-04-17T09:53:09.879Z,1.70
2023-04-17T09:55:39.136Z,1.47
2023-04-17T09:58:08.569Z,1.47
2023-04-17T10:00:38.230Z,1.70
2023-04-17T10:03:08.123Z,1.60
2023-04-17T10:05:37.163Z,1.37
2023-04-17T10:08:06.637Z,1.50
2023-04-17T10:10:36.862Z,1.37
2023-04-17T10:13:07.985Z,1.20
2023-04-17T10:15:36.359Z,1.30
2023-04-17T10:18:26.086Z,1.53
2023-04-17T10:20:55.808Z,1.33
2023-04-17T10:23:32.906Z,1.70
2023-04-17T10:26:25.509Z,1.60
2023-04-17T10:28:54.499Z,1.33
2023-04-17T10:32:01.258Z,1.90
2023-04-17T10:34:41.008Z,1.80
2023-04-17T10:37:15.861Z,1.57
2023-04-17T10:39:53.777Z,1.50
2023-04-17T10:42:22.746Z,1.10
2023-04-17T10:44:57.511Z,1.73
2023-04-17T10:47:35.092Z,2.43
2023-04-17T10:50:06.128Z,1.53
2023-04-17T10:52:55.024Z,1.50
2023-04-17T10:55:27.869Z,1.50
2023-04-17T10:58:01.345Z,1.20
2023-04-17T11:00:50.120Z,1.77
2023-04-17T11:03:18.586Z,1.20
2023-04-17T11:05:48.627Z,1.20
2023-04-17T11:08:17.300Z,1.73
2023-04-17T11:10:46.259Z,2.30
2023-04-17T11:13:16.373Z,4.70
2023-04-17T11:15:44.502Z,5.43
2023-04-17T11:18:13.303Z,4.70
2023-04-17T11:20:41.609Z,4.70
2023-04-17T11:23:10.080Z,2.77
2023-04-17T11:25:43.849Z,2.80
2023-04-17T11:28:12.505Z,2.83
2023-04-17T11:30:45.364Z,2.50
2023-04-17T11:33:13.728Z,1.73
2023-04-17T11:35:43.160Z,1.73
2023-04-17T11:38:23.788Z,3.90
2023-04-17T11:40:54.488Z,5.70
2023-04-17T11:43:24.283Z,6.07
2023-04-17T11:45:57.372Z,5.17
2023-04-17T11:48:30.044Z,6.23
2023-04-17T11:51:01.591Z,5.40
2023-04-17T11:53:30.308Z,3.47
2023-04-17T11:56:18.605Z,2.30
2023-04-17T11:58:53.570Z,5.10
2023-04-17T12:01:26.376Z,3.37
2023-04-17T12:03:58.121Z,2.63
2023-04-17T12:06:37.286Z,4.90
2023-04-17T12:09:07.398Z,1.73
2023-04-17T12:11:36.600Z,2.53
2023-04-17T12:14:05.951Z,1.93
2023-04-17T12:16:37.889Z,2.43
2023-04-17T12:19:06.386Z,2.03
2023-04-17T12:21:35.038Z,4.90
2023-04-17T12:24:03.214Z,2.30
2023-04-17T12:26:34.999Z,2.20
2023-04-17T12:29:05.175Z,2.00
2023-04-17T12:31:33.394Z,2.50
2023-04-17T12:34:05.841Z,1.20
2023-04-17T12:36:34.497Z,1.20
2023-04-17T12:39:02.392Z,1.10
2023-04-17T12:41:30.935Z,1.90
2023-04-17T12:44:02.011Z,6.70
2023-04-17T12:46:31.027Z,1.83
2023-04-17T12:49:04.151Z,1.40
2023-04-17T12:51:38.235Z,2.27
2023-04-17T12:54:06.394Z,1.30
2023-04-17T12:56:35.090Z,5.47
2023-04-17T12:59:03.338Z,3.27
2023-04-17T13:01:31.828Z,1.30
2023-04-17T13:04:00.282Z,1.83
2023-04-17T13:06:28.507Z,2.50
2023-04-17T13:08:56.568Z,1.10
2023-04-17T13:11:29.502Z,1.23
2023-04-17T13:13:58.400Z,1.27
2023-04-17T13:16:27.437Z,1.27
2023-04-17T13:18:55.943Z,1.30
2023-04-17T13:21:23.863Z,1.10
2023-04-17T13:23:52.053Z,4.70
2023-04-17T13:26:21.029Z,5.97
2023-04-17T13:28:51.873Z,2.47
2023-04-17T13:31:22.299Z,1.93
2023-04-17T13:33:50.908Z,1.30
2023-04-17T13:36:18.892Z,1.27
2023-04-17T13:38:48.545Z,1.63
2023-04-17T13:41:18.552Z,1.13
2023-04-17T13:43:46.763Z,1.10
2023-04-17T13:46:16.682Z,1.57
2023-04-17T13:48:45.147Z,1.60
2023-04-17T13:51:14.381Z,1.30
2023-04-17T13:53:42.610Z,2.17
2023-04-17T13:56:10.888Z,1.20
2023-04-17T13:58:40.696Z,1.73
2023-04-17T14:01:12.888Z,2.17
2023-04-17T14:03:43.059Z,1.97
2023-04-17T14:06:13.387Z,1.90
2023-04-17T14:08:44.078Z,1.93
2023-04-17T14:11:15.788Z,2.17
2023-04-17T14:13:43.843Z,1.90
2023-04-17T14:16:11.902Z,1.50
2023-04-17T14:18:39.946Z,1.77
2023-04-17T14:21:08.505Z,1.73
2023-04-17T14:23:36.825Z,1.73
2023-04-17T14:26:07.303Z,3.83
2023-04-17T14:28:38.402Z,4.30
2023-04-17T14:31:09.729Z,3.00
2023-04-17T14:33:38.418Z,3.33
2023-04-17T14:36:07.729Z,3.40
2023-04-17T14:38:42.178Z,2.40
2023-04-17T14:41:10.441Z,2.77
2023-04-17T14:43:38.502Z,2.37
2023-04-17T14:46:06.516Z,2.13
2023-04-17T14:48:48.103Z,3.40
2023-04-17T14:51:27.405Z,5.23
2023-04-17T14:53:55.732Z,9.20
2023-04-17T14:56:24.012Z,10.33
2023-04-17T14:58:52.193Z,7.43
2023-04-17T15:01:20.596Z,4.77
2023-04-17T15:03:49.145Z,3.30
2023-04-17T15:06:23.948Z,1.97
2023-04-17T15:08:52.738Z,1.90
2023-04-17T15:11:21.417Z,1.63
2023-04-17T15:13:49.636Z,2.53
2023-04-17T15:16:18.295Z,2.00
2023-04-17T15:18:46.619Z,2.40
2023-04-17T15:21:16.670Z,2.00
2023-04-17T15:23:44.677Z,1.67
2023-04-17T15:26:14.293Z,2.03
2023-04-17T15:28:42.762Z,1.73
2023-04-17T15:31:13.138Z,1.97
2023-04-17T15:33:41.415Z,2.50
2023-04-17T15:36:09.449Z,2.87
2023-04-17T15:38:40.237Z,2.97
2023-04-17T15:41:10.155Z,2.20
2023-04-17T15:43:39.857Z,1.90
2023-04-17T15:46:08.188Z,2.20
2023-04-17T15:48:36.397Z,1.90
2023-04-17T15:51:05.985Z,2.07
2023-04-17T15:53:34.446Z,2.03
2023-04-17T15:56:03.234Z,5.30
2023-04-17T15:58:31.869Z,4.03
2023-04-17T16:01:00.131Z,4.20
2023-04-17T16:03:28.779Z,6.17
2023-04-17T16:06:00.539Z,4.70
2023-04-17T16:08:29.062Z,6.37
2023-04-17T16:10:57.717Z,7.90
2023-04-17T16:13:27.024Z,7.17
2023-04-17T16:15:55.691Z,5.10
2023-04-17T16:18:24.194Z,4.03
2023-04-17T16:20:52.155Z,3.00
2023-04-17T16:23:21.211Z,3.20
2023-04-17T16:25:51.463Z,2.40
2023-04-17T16:28:19.585Z,4.20
2023-04-17T16:30:49.853Z,2.53
2023-04-17T16:33:18.088Z,3.03
2023-04-17T16:35:46.457Z,3.47
2023-04-17T16:38:14.492Z,3.63
2023-04-17T16:40:42.636Z,4.40
2023-04-17T16:43:11.153Z,5.10
2023-04-17T16:45:40.813Z,4.20
2023-04-17T16:48:11.879Z,5.80
2023-04-17T16:50:42.734Z,5.50
2023-04-17T16:53:11.337Z,5.60
2023-04-17T16:55:39.535Z,5.50
2023-04-17T16:58:09.708Z,4.97
2023-04-17T17:00:38.207Z,4.90
2023-04-17T17:03:06.358Z,4.80
2023-04-17T17:05:35.254Z,4.03
2023-04-17T17:08:11.130Z,5.17
2023-04-17T17:10:41.896Z,5.03
2023-04-17T17:13:13.518Z,4.50
2023-04-17T17:15:45.463Z,3.90
2023-04-17T17:18:13.492Z,4.30
2023-04-17T17:20:44.559Z,4.30
2023-04-17T17:23:12.486Z,4.03
2023-04-17T17:25:40.780Z,4.37
2023-04-17T17:28:09.530Z,4.13
2023-04-17T17:30:38.491Z,3.83
2023-04-17T17:33:06.694Z,4.13
2023-04-17T17:35:34.959Z,4.57
2023-04-17T17:38:03.794Z,5.17
2023-04-17T17:40:37.261Z,5.33
2023-04-17T17:43:05.416Z,5.70
2023-04-17T17:45:37.437Z,6.03
2023-04-17T17:48:06.849Z,5.17
2023-04-17T17:50:37.708Z,5.27
2023-04-17T17:53:05.905Z,5.17
2023-04-17T17:55:38.224Z,4.23
2023-04-17T17:58:07.731Z,4.40
2023-04-17T18:00:36.888Z,4.20
2023-04-17T18:03:06.137Z,4.20
2023-04-17T18:05:34.878Z,3.47
2023-04-17T18:08:02.870Z,3.83
2023-04-17T18:10:31.143Z,3.97
2023-04-17T18:13:00.223Z,3.97
2023-04-17T18:15:28.635Z,3.77
2023-04-17T18:17:56.916Z,3.20
2023-04-17T18:20:24.938Z,3.17
2023-04-17T18:22:53.096Z,3.10
2023-04-17T18:25:21.508Z,2.37
2023-04-17T18:27:52.139Z,2.47
2023-04-17T18:30:20.087Z,2.57
2023-04-17T18:32:48.169Z,2.80
2023-04-17T18:35:16.369Z,2.33
2023-04-17T18:37:45.762Z,2.90
2023-04-17T18:40:14.255Z,2.80
2023-04-17T18:42:42.452Z,3.00
2023-04-17T18:45:13.919Z,3.67
2023-04-17T18:47:42.705Z,3.13
2023-04-17T18:50:12.338Z,4.67
2023-04-17T18:52:44.041Z,4.63
2023-04-17T18:55:14.950Z,4.40
2023-04-17T18:57:43.474Z,3.97
2023-04-17T19:00:15.239Z,5.57
2023-04-17T19:02:46.933Z,6.20
2023-04-17T19:05:17.041Z,4.97
2023-04-17T19:07:48.950Z,4.30
2023-04-17T19:10:16.930Z,4.47
2023-04-17T19:12:48.490Z,3.50
2023-04-17T19:15:18.058Z,2.50
2023-04-17T19:17:46.291Z,2.93
2023-04-17T19:20:17.968Z,2.93
2023-04-17T19:22:46.273Z,2.50
2023-04-17T19:25:14.323Z,3.10
2023-04-17T19:27:42.502Z,2.30
2023-04-17T19:30:11.379Z,1.67
2023-04-17T19:32:39.750Z,2.20
2023-04-17T19:35:08.598Z,2.13
2023-04-17T19:37:37.098Z,2.30
2023-04-17T19:40:14.122Z,3.20
2023-04-17T19:42:49.907Z,3.97
2023-04-17T19:45:21.505Z,6.23
2023-04-17T19:47:57.715Z,5.87
2023-04-17T19:50:32.113Z,6.57
2023-04-17T19:53:01.136Z,4.63
2023-04-17T19:55:30.025Z,4.00
2023-04-17T19:57:59.219Z,6.23
2023-04-17T20:00:27.475Z,6.37
2023-04-17T20:02:58.621Z,5.97
2023-04-17T20:05:29.765Z,5.80
2023-04-17T20:07:57.821Z,4.53
2023-04-17T20:10:29.902Z,3.87
2023-04-17T20:13:00.752Z,4.00
2023-04-17T20:15:32.455Z,5.53
2023-04-17T20:18:00.860Z,5.43
2023-04-17T20:20:29.521Z,8.20
2023-04-17T20:23:00.608Z,4.90
2023-04-17T20:25:28.929Z,4.17
2023-04-17T20:28:01.939Z,2.87
2023-04-17T20:30:31.076Z,2.40
2023-04-17T20:33:00.756Z,2.17
2023-04-17T20:35:28.890Z,4.77
2023-04-17T20:37:57.633Z,2.90
2023-04-17T20:40:25.953Z,4.03
2023-04-17T20:42:54.437Z,3.40
2023-04-17T20:45:22.993Z,3.93
2023-04-17T20:50:22.464Z,2.30
2023-04-17T20:52:51.680Z,2.17
2023-04-17T20:55:20.460Z,2.07
2023-04-17T20:57:49.227Z,2.80
2023-04-17T21:00:23.425Z,4.30
2023-04-17T21:02:56.548Z,3.80
2023-04-17T21:05:25.475Z,3.17
2023-04-17T21:07:54.801Z,4.77
2023-04-17T21:10:22.949Z,4.47
2023-04-17T21:12:51.288Z,4.50
2023-04-17T21:15:21.830Z,5.03
2023-04-17T21:17:50.366Z,6.73
2023-04-17T21:20:18.683Z,5.00
2023-04-17T21:22:46.778Z,5.90
2023-04-17T21:25:14.996Z,5.33
2023-04-17T21:27:44.575Z,5.17
2023-04-17T21:30:13.550Z,5.17
2023-04-17T21:32:42.954Z,4.63
2023-04-17T21:35:12.011Z,4.90
2023-04-17T21:37:41.039Z,3.67
2023-04-17T21:40:10.091Z,3.00
2023-04-17T21:42:38.217Z,3.67
2023-04-17T21:45:07.060Z,4.70
2023-04-17T21:47:35.973Z,5.03
2023-04-17T21:50:04.144Z,5.63
2023-04-17T21:52:32.312Z,7.23
2023-04-17T21:55:05.343Z,6.90
2023-04-17T21:57:33.672Z,6.27
2023-04-17T22:00:03.036Z,4.40
2023-04-17T22:02:34.134Z,3.57
2023-04-17T22:05:02.638Z,3.70
2023-04-17T22:07:34.122Z,6.70
2023-04-17T22:10:06.965Z,7.73
2023-04-17T22:12:35.126Z,7.33
2023-04-17T22:15:03.313Z,7.20
2023-04-17T22:18:00.703Z,5.73
2023-04-17T22:20:29.012Z,5.80
2023-04-17T22:22:57.198Z,4.70
2023-04-17T22:25:25.372Z,3.10
2023-04-17T22:27:53.850Z,2.40
2023-04-17T22:30:26.933Z,2.50
2023-04-17T22:32:57.754Z,3.00
2023-04-17T22:35:25.947Z,2.53
2023-04-17T22:37:54.101Z,3.30
2023-04-17T22:40:22.077Z,6.27
2023-04-17T22:42:50.987Z,6.50
2023-04-17T22:45:22.084Z,6.97
2023-04-17T22:47:50.559Z,3.93
2023-04-17T22:50:19.487Z,5.70
2023-04-17T22:52:49.289Z,4.70
2023-04-17T22:55:22.504Z,3.13
2023-04-17T22:57:50.557Z,6.37
2023-04-17T23:00:22.726Z,5.17
2023-04-17T23:02:50.995Z,5.10
2023-04-17T23:05:19.183Z,5.90
2023-04-17T23:07:47.634Z,6.97
2023-04-17T23:10:19.515Z,6.53
2023-04-17T23:12:47.677Z,4.03
2023-04-17T23:15:15.901Z,5.50
2023-04-17T23:17:46.734Z,5.87
2023-04-17T23:20:15.119Z,5.37
2023-04-17T23:22:43.573Z,3.40
2023-04-17T23:25:11.689Z,6.27
2023-04-17T23:27:46.800Z,5.97
2023-04-17T23:30:15.198Z,7.43
2023-04-17T23:32:43.741Z,6.80
2023-04-17T23:35:11.883Z,5.80
2023-04-17T23:37:40.271Z,5.47
2023-04-17T23:40:09.607Z,6.13
2023-04-17T23:42:37.999Z,6.17
2023-04-17T23:45:06.637Z,8.70
2023-04-17T23:47:35.273Z,6.43
2023-04-17T23:50:05.662Z,8.30
2023-04-17T23:52:34.061Z,7.73
2023-04-17T23:55:03.319Z,7.93
2023-04-17T23:57:46.842Z,7.47
